WetterOnline ( http://www.wetteronline.de )

Wetter aktuell Gottfrieding

Aktuelles Wetter: Gottfrieding (350m)

6-stündlich | Neueste Meldungen
Ortszeit Temperatur Wetter
Fr, 22.02. 7:00 7.7° C bedeckt
Fr, 22.02. 1:00 7.2° C Sprühregen
Do, 21.02. 19:00 8.3° C bewölkt
Do, 21.02. 13:00 10.4° C wolkig
Do, 21.02. 7:00 -0.1° C Nebel
Do, 21.02. 1:00 0.8° C bedeckt
Mi, 20.02. 19:00 5.4° C bedeckt
Mi, 20.02. 13:00 7.9° C bewölkt
Ortszeit Temperatur Wetter
Fr, 22.02. 12:30 10.0° C bewölkt
Fr, 22.02. 12:20 10.0° C bewölkt
Fr, 22.02. 12:10 10.2° C wolkig
Fr, 22.02. 12:00 10.0° C bedeckt
Fr, 22.02. 11:50 10.0° C bedeckt
Fr, 22.02. 11:40 9.8° C bedeckt
Fr, 22.02. 11:30 9.5° C bedeckt
Fr, 22.02. 11:00 9.3° C bedeckt
Fr, 22.02. 10:30 9.0° C bedeckt
Fr, 22.02. 10:00 8.6° C bedeckt
Fr, 22.02. 9:30 8.2° C bedeckt
Ortszeit Relative Feuchte Sichtweite
Fr, 22.02. 7:00 86% 5.0 km
Fr, 22.02. 1:00 86% 4.4 km
Do, 21.02. 19:00 74% 13 km
Do, 21.02. 13:00 61% 14 km
Do, 21.02. 7:00 100% 0.8 km
Do, 21.02. 1:00 99% 1.5 km
Mi, 20.02. 19:00 87% 6 km
Mi, 20.02. 13:00 70% 10 km
Ortszeit Relative Feuchte Sichtweite
Fr, 22.02. 12:30 69% 30 km
Fr, 22.02. 12:20 69% -
Fr, 22.02. 12:10 72% -
Fr, 22.02. 12:00 73% 14 km
Fr, 22.02. 11:50 73% -
Fr, 22.02. 11:40 74% -
Fr, 22.02. 11:30 78% 11 km
Fr, 22.02. 11:00 80% 8 km
Fr, 22.02. 10:30 81% 7 km
Fr, 22.02. 10:00 81% 7 km
Fr, 22.02. 9:30 84% 6 km
Ortszeit Niederschlagsmenge Niederschlagsart
Fr, 22.02. 7:00 0.4 l/m2 in 12 Std. Regen
Fr, 22.02. 1:00 0.2 l/m2 in 6 Std. Regen
Do, 21.02. 19:00 0.1 l/m2 in 12 Std. Regen
Do, 21.02. 13:00 0.0 l/m2 in 6 Std. -
Do, 21.02. 7:00 0.0 l/m2 in 12 Std. -
Do, 21.02. 1:00 0.0 l/m2 in 6 Std. -
Mi, 20.02. 19:00 0.0 l/m2 in 12 Std. -
Mi, 20.02. 13:00 0.0 l/m2 in 6 Std. -
Ortszeit Niederschlagsmenge Niederschlagsart
Fr, 22.02. 12:30 0.0 l/m2 in 1 Std. -
Fr, 22.02. 12:20 keine Meldung -
Fr, 22.02. 12:10 keine Meldung -
Fr, 22.02. 12:00 0.0 l/m2 in 1 Std. -
Fr, 22.02. 11:50 keine Meldung -
Fr, 22.02. 11:40 keine Meldung -
Fr, 22.02. 11:30 0.0 l/m2 in 1 Std. -
Fr, 22.02. 11:00 0.1 l/m2 in 1 Std. Regen
Fr, 22.02. 10:30 0.1 l/m2 in 1 Std. Schneeregen
Fr, 22.02. 10:00 0.1 l/m2 in 1 Std. Regen
Fr, 22.02. 9:30 0.1 l/m2 in 1 Std. Schnee
Ortszeit Stärke Spitze Richtung
km/h Bft. km/h Grad Sektor
Fr, 22.02. 7:00 18 3 29 280° W
Fr, 22.02. 1:00 14 3 22 250° W
Do, 21.02. 19:00 7 2 25 260° W
Do, 21.02. 13:00 14 3 25 280° W
Do, 21.02. 7:00 2 1 7 260° W
Do, 21.02. 1:00 0 0 7 - -
Mi, 20.02. 19:00 6 1 20 60° NO
Mi, 20.02. 13:00 6 1 11 290° W
Ortszeit Stärke Spitze Richtung
km/h Bft. km/h Grad Sektor
Fr, 22.02. 12:30 22 4 36 330° NW
Fr, 22.02. 12:20 22 4 - 330° NW
Fr, 22.02. 12:10 22 4 - 340° N
Fr, 22.02. 12:00 14 3 32 330° NW
Fr, 22.02. 11:50 14 3 - 330° NW
Fr, 22.02. 11:40 20 4 - 320° NW
Fr, 22.02. 11:30 24 4 31 320° NW
Fr, 22.02. 11:00 22 4 32 310° NW
Fr, 22.02. 10:30 22 4 32 310° NW
Fr, 22.02. 10:00 22 4 32 310° NW
Fr, 22.02. 9:30 17 3 26 280° W
Ortszeit Untergrenze Bedeckung Gattung
total tief tief mittel hoch
Fr, 22.02. 7:00 510 m 8/8 8/8 - - -
Fr, 22.02. 1:00 1110 m 8/8 8/8 - - -
Do, 21.02. 19:00 1800 m 8/8 4/8 - - -
Do, 21.02. 13:00 1080 m 8/8 2/8 - - -
Do, 21.02. 7:00 <30 m 7/8 0/8 - - -
Do, 21.02. 1:00 3000 m 8/8 8/8 - - -
Mi, 20.02. 19:00 3600 m 8/8 8/8 - - -
Mi, 20.02. 13:00 780 m 7/8 6/8 - - -
Ortszeit Bedeckungsgrad in Achtel und Wolkenuntergrenze
Fr, 22.02. 12:30 2(720m) 7(1500m) 7(1800m)
Fr, 22.02. 12:20 2(720m) 7(1500m) 7(1800m)
Fr, 22.02. 12:10 3(690m) 6(1500m) 6(1800m)
Fr, 22.02. 12:00 5(660m) 8(1080m) 8(1800m)
Fr, 22.02. 11:50 5(660m) 8(1080m) 8(1800m)
Fr, 22.02. 11:40 5(660m) 7(1050m) 8(1800m)
Fr, 22.02. 11:30 1(660m) 4(990m) 8(1800m)
Fr, 22.02. 11:00 1(540m) 6(1290m) 8(1800m)
Fr, 22.02. 10:30 2(630m) 7(1350m) 8(1800m)
Fr, 22.02. 10:00 1(690m) 7(1800m) 8(2700m)
Fr, 22.02. 9:30 2(1470m) 8(1500m)
Ortszeit Luftdruck NN (hPa) Tendenz (hPa in 3 Std.)
Fr, 22.02. 7:00 1029 + 0,8
Fr, 22.02. 1:00 1029 + 0,3
Do, 21.02. 19:00 1028 + 0,7
Do, 21.02. 13:00 1029 - 0,5
Do, 21.02. 7:00 1030 + 0,3
Do, 21.02. 1:00 1029 + 0,3
Mi, 20.02. 19:00 1027 + 0,7
Mi, 20.02. 13:00 1026 + 0,2
Ortszeit Luftdruck NN (hPa) Tendenz (hPa in 3 Std.)
Fr, 22.02. 12:30 1032 + 1,8
Fr, 22.02. 12:20 1032 keine Meldung
Fr, 22.02. 12:10 1032 keine Meldung
Fr, 22.02. 12:00 1032 + 1,7
Fr, 22.02. 11:50 1032 keine Meldung
Fr, 22.02. 11:40 1032 keine Meldung
Fr, 22.02. 11:30 1032 + 2,0
Fr, 22.02. 11:00 1032 + 2,0
Fr, 22.02. 10:30 1032 + 2,1
Fr, 22.02. 10:00 1031 + 2,1
Fr, 22.02. 9:30 1031 + 1,7
Ortszeit Schneehöhe (cm)
Fr, 22.02. 7:00 0
Fr, 22.02. 1:00 0
Do, 21.02. 19:00 0
Do, 21.02. 13:00 0
Do, 21.02. 7:00 0
Do, 21.02. 1:00 0
Mi, 20.02. 19:00 0
Mi, 20.02. 13:00 0
Ortszeit Schneehöhe (cm)
Fr, 22.02. 12:30 0
Fr, 22.02. 12:20 0
Fr, 22.02. 12:10 0
Fr, 22.02. 12:00 0
Fr, 22.02. 11:50 0
Fr, 22.02. 11:40 0
Fr, 22.02. 11:30 0
Fr, 22.02. 11:00 0
Fr, 22.02. 10:30 0
Fr, 22.02. 10:00 0
Fr, 22.02. 9:30 0
Link zu dieser Seite / Seite empfehlen

Das Wetter in ...